createdAt,value
2018-12-09T00:00:38.685Z,9.20
2018-12-09T00:05:42.619Z,9.10
2018-12-09T00:10:46.519Z,9.10
2018-12-09T00:15:50.440Z,9.20
2018-12-09T00:20:54.360Z,9.10
2018-12-09T00:25:58.281Z,9.10
2018-12-09T00:31:02.247Z,9.10
2018-12-09T00:36:06.203Z,9.10
2018-12-09T00:41:10.113Z,9.10
2018-12-09T00:46:14.028Z,9.10
2018-12-09T00:51:18.040Z,9.10
2018-12-09T00:56:22.062Z,9.10
2018-12-09T01:01:26.077Z,9.10
2018-12-09T01:06:30.189Z,9.10
2018-12-09T01:11:34.320Z,9.10
2018-12-09T01:16:38.223Z,9.10
2018-12-09T01:21:42.193Z,9.10
2018-12-09T01:26:46.201Z,9.10
2018-12-09T01:31:50.176Z,9.10
2018-12-09T01:36:54.357Z,9.00
2018-12-09T01:41:58.405Z,9.00
2018-12-09T01:47:02.517Z,9.00
2018-12-09T01:52:06.415Z,8.90
2018-12-09T01:57:10.328Z,9.00
2018-12-09T02:02:14.341Z,8.90
2018-12-09T02:07:18.434Z,8.90
2018-12-09T02:12:22.422Z,8.90
2018-12-09T02:17:26.508Z,8.90
2018-12-09T02:22:30.881Z,8.90
2018-12-09T02:27:34.879Z,9.00
2018-12-09T02:32:38.893Z,9.00
2018-12-09T02:37:42.972Z,8.90
2018-12-09T02:42:47.010Z,8.90
2018-12-09T02:47:50.972Z,8.90
2018-12-09T02:52:55.120Z,9.00
2018-12-09T02:57:59.188Z,8.90
2018-12-09T03:03:03.202Z,8.90
2018-12-09T03:08:07.528Z,8.90
2018-12-09T03:13:11.853Z,8.90
2018-12-09T03:18:15.842Z,8.90
2018-12-09T03:23:26.367Z,8.90
2018-12-09T03:28:30.266Z,8.90
2018-12-09T03:33:34.620Z,8.90
2018-12-09T03:38:38.704Z,8.90
2018-12-09T03:43:42.656Z,8.90
2018-12-09T03:48:46.694Z,8.90
2018-12-09T03:53:50.821Z,8.90
2018-12-09T03:58:54.733Z,8.90
2018-12-09T04:03:59.134Z,8.80
2018-12-09T04:09:04.477Z,8.80
2018-12-09T04:14:08.417Z,8.80
2018-12-09T04:19:12.299Z,8.90
2018-12-09T04:24:16.338Z,8.80
2018-12-09T04:29:20.244Z,8.80
2018-12-09T04:34:25.307Z,8.80
2018-12-09T04:39:29.325Z,8.80
2018-12-09T04:44:33.246Z,8.80
2018-12-09T04:49:37.155Z,8.80
2018-12-09T04:54:41.129Z,8.80
2018-12-09T04:59:48.530Z,8.80
2018-12-09T05:04:52.561Z,8.80
2018-12-09T05:09:57.158Z,8.70
2018-12-09T05:15:01.182Z,8.70
2018-12-09T05:20:05.277Z,8.60
2018-12-09T05:25:09.287Z,8.70
2018-12-09T05:30:13.448Z,8.70
2018-12-09T05:35:17.361Z,8.70
2018-12-09T05:40:21.349Z,8.70
2018-12-09T05:45:25.445Z,8.70
2018-12-09T05:50:29.436Z,8.70
2018-12-09T05:55:33.642Z,8.70
2018-12-09T06:00:37.650Z,8.80
2018-12-09T06:05:41.731Z,8.70
2018-12-09T06:10:45.706Z,8.70
2018-12-09T06:15:49.644Z,8.80
2018-12-09T06:25:00.625Z,8.80
2018-12-09T06:30:06.264Z,8.70
2018-12-09T06:35:10.440Z,8.80
2018-12-09T06:40:14.477Z,8.80
2018-12-09T06:45:18.420Z,8.80
2018-12-09T06:50:22.386Z,8.70
2018-12-09T06:55:26.507Z,8.70
2018-12-09T07:00:30.418Z,8.70
2018-12-09T07:05:34.489Z,8.70
2018-12-09T07:10:38.402Z,8.70
2018-12-09T07:15:42.364Z,8.70
2018-12-09T07:20:46.337Z,8.70
2018-12-09T07:25:50.270Z,8.70
2018-12-09T07:30:54.365Z,8.70
2018-12-09T07:35:58.906Z,8.70
2018-12-09T07:41:02.830Z,8.70
2018-12-09T07:46:06.819Z,8.70
2018-12-09T07:51:10.810Z,8.70
2018-12-09T07:56:14.885Z,8.70
2018-12-09T08:01:18.849Z,8.80
2018-12-09T08:06:22.987Z,8.80
2018-12-09T08:11:27.534Z,8.80
2018-12-09T08:16:31.621Z,8.80
2018-12-09T08:21:35.675Z,8.70
2018-12-09T08:26:39.797Z,8.70
2018-12-09T08:31:44.213Z,8.70
2018-12-09T08:36:48.255Z,8.60
2018-12-09T08:41:52.337Z,8.60
2018-12-09T08:46:56.526Z,8.60
2018-12-09T08:52:00.583Z,8.60
2018-12-09T08:57:04.754Z,8.40
2018-12-09T09:02:08.745Z,8.60
2018-12-09T09:07:12.805Z,8.60
2018-12-09T09:12:16.746Z,8.60
2018-12-09T09:17:20.807Z,8.50
2018-12-09T09:22:24.896Z,8.60
2018-12-09T09:27:29.093Z,8.50
2018-12-09T09:32:33.149Z,8.40
2018-12-09T09:37:37.817Z,8.50
2018-12-09T09:42:42.496Z,8.50
2018-12-09T09:48:33.734Z,8.50
2018-12-09T09:53:37.799Z,8.50
2018-12-09T09:58:41.876Z,8.40
2018-12-09T10:03:45.979Z,8.30
2018-12-09T10:08:49.952Z,8.30
2018-12-09T10:13:54.273Z,8.30
2018-12-09T10:18:58.539Z,8.10
2018-12-09T10:24:02.492Z,7.90
2018-12-09T10:29:06.539Z,8.00
2018-12-09T10:34:10.503Z,7.90
2018-12-09T10:39:15.448Z,8.00
2018-12-09T10:46:06.973Z,7.90
2018-12-09T10:51:10.930Z,8.00
2018-12-09T11:00:19.450Z,8.00
2018-12-09T11:05:23.370Z,7.70
2018-12-09T11:10:27.528Z,7.70
2018-12-09T11:15:31.660Z,7.70
2018-12-09T11:20:35.597Z,7.70
2018-12-09T11:25:39.678Z,7.90
2018-12-09T11:30:43.624Z,7.90
2018-12-09T11:35:47.576Z,7.80
2018-12-09T11:40:51.519Z,7.80
2018-12-09T11:45:55.561Z,7.80
2018-12-09T11:51:00.470Z,7.80
2018-12-09T11:56:04.706Z,7.70
2018-12-09T12:01:08.618Z,7.70
2018-12-09T12:06:13.032Z,7.90
2018-12-09T12:11:17.058Z,8.00
2018-12-09T12:16:21.317Z,8.00
2018-12-09T12:21:26.717Z,8.00
2018-12-09T12:26:30.867Z,8.10
2018-12-09T12:31:34.845Z,8.10
2018-12-09T12:36:38.980Z,8.10
2018-12-09T12:41:42.980Z,8.20
2018-12-09T12:46:47.049Z,8.30
2018-12-09T12:51:51.120Z,8.40
2018-12-09T12:56:55.386Z,8.40
2018-12-09T13:01:59.394Z,8.40
2018-12-09T13:07:03.298Z,8.30
2018-12-09T13:12:07.500Z,8.40
2018-12-09T13:17:12.273Z,8.20
2018-12-09T13:22:16.526Z,8.20
2018-12-09T13:27:20.554Z,8.20
2018-12-09T13:32:24.881Z,8.10
2018-12-09T13:37:29.277Z,8.30
2018-12-09T13:42:33.393Z,8.30
2018-12-09T13:47:37.532Z,8.50
2018-12-09T13:52:41.530Z,8.30
2018-12-09T13:57:45.889Z,8.30
2018-12-09T14:02:50.026Z,8.30
2018-12-09T14:07:53.980Z,8.30
2018-12-09T14:12:58.183Z,8.30
2018-12-09T14:18:02.221Z,8.40
2018-12-09T14:23:06.239Z,8.30
2018-12-09T14:28:10.402Z,8.30
2018-12-09T14:33:14.380Z,8.30
2018-12-09T14:38:18.461Z,8.30
2018-12-09T14:43:22.402Z,8.30
2018-12-09T14:48:26.390Z,8.20
2018-12-09T14:53:30.336Z,8.30
2018-12-09T14:58:34.547Z,8.30
2018-12-09T15:03:38.679Z,8.30
2018-12-09T15:08:42.732Z,8.20
2018-12-09T15:13:47.048Z,8.10
2018-12-09T15:19:01.552Z,8.30
2018-12-09T15:35:08.360Z,8.20
2018-12-09T15:40:12.449Z,8.10
2018-12-09T15:45:16.474Z,8.10
2018-12-09T15:50:20.504Z,8.00
2018-12-09T15:55:24.728Z,7.90
2018-12-09T16:00:36.240Z,7.90
2018-12-09T16:05:40.326Z,7.80
2018-12-09T16:10:44.493Z,7.70
2018-12-09T16:15:49.565Z,7.90
2018-12-09T16:20:53.567Z,7.70
2018-12-09T16:25:57.584Z,7.70
2018-12-09T16:31:01.517Z,7.70
2018-12-09T16:36:05.590Z,7.70
2018-12-09T16:41:09.533Z,7.70
2018-12-09T16:46:13.476Z,7.70
2018-12-09T16:51:17.721Z,7.70
2018-12-09T16:56:21.936Z,7.60
2018-12-09T17:01:26.438Z,7.60
2018-12-09T17:06:30.476Z,7.60
2018-12-09T17:11:34.515Z,7.60
2018-12-09T17:16:38.624Z,7.70
2018-12-09T17:21:42.832Z,7.40
2018-12-09T17:26:46.881Z,7.50
2018-12-09T17:31:51.004Z,7.60
2018-12-09T17:36:55.076Z,7.60
2018-12-09T17:41:59.093Z,7.50
2018-12-09T17:47:03.077Z,7.60
2018-12-09T17:52:07.124Z,7.50
2018-12-09T17:57:11.043Z,7.50
2018-12-09T18:02:15.154Z,7.50
2018-12-09T18:07:19.387Z,7.50
2018-12-09T18:12:23.358Z,7.50
2018-12-09T18:17:27.330Z,7.50
2018-12-09T18:22:32.058Z,7.50
2018-12-09T18:27:36.297Z,7.40
2018-12-09T18:32:40.511Z,7.50
2018-12-09T18:37:46.532Z,7.60
2018-12-09T18:45:06.479Z,7.60
2018-12-09T18:50:11.090Z,7.60
2018-12-09T18:55:15.219Z,7.40
2018-12-09T19:00:19.482Z,7.40
2018-12-09T19:05:24.277Z,7.30
2018-12-09T19:10:28.713Z,7.50
2018-12-09T19:15:32.950Z,6.80
2018-12-09T19:20:36.916Z,6.70
2018-12-09T19:25:41.038Z,6.80
2018-12-09T19:30:48.281Z,6.80
2018-12-09T19:35:52.162Z,7.10
2018-12-09T19:40:56.899Z,7.00
2018-12-09T19:46:00.923Z,7.10
2018-12-09T19:51:06.602Z,7.20
2018-12-09T19:56:11.176Z,7.20
2018-12-09T20:01:15.192Z,7.20
2018-12-09T20:06:20.303Z,7.20
2018-12-09T20:11:24.516Z,7.30
2018-12-09T20:16:28.595Z,7.10
2018-12-09T20:21:32.745Z,6.90
2018-12-09T20:26:37.387Z,7.00
2018-12-09T20:31:41.446Z,7.10
2018-12-09T20:36:46.170Z,7.00
2018-12-09T20:41:50.318Z,6.90
2018-12-09T20:46:54.892Z,7.00
2018-12-09T20:51:59.120Z,6.80
2018-12-09T20:57:03.213Z,7.00
2018-12-09T21:02:07.703Z,7.00
2018-12-09T21:07:11.696Z,7.10
2018-12-09T21:12:15.861Z,7.00
2018-12-09T21:17:19.980Z,7.00
2018-12-09T21:22:24.629Z,7.00
2018-12-09T21:27:28.567Z,6.90
2018-12-09T21:32:32.714Z,6.90
2018-12-09T21:37:36.941Z,6.90
2018-12-09T21:42:41.554Z,7.00
2018-12-09T21:47:45.580Z,6.90
2018-12-09T21:52:49.795Z,7.00
2018-12-09T21:57:53.763Z,7.00
2018-12-09T22:02:58.105Z,7.00
2018-12-09T22:08:02.197Z,6.90
2018-12-09T22:13:06.165Z,7.00
2018-12-09T22:18:10.092Z,7.00
2018-12-09T22:23:14.216Z,7.10
2018-12-09T22:28:18.285Z,7.00
2018-12-09T22:33:22.267Z,7.00
2018-12-09T22:38:26.206Z,6.90
2018-12-09T22:43:30.322Z,6.90
2018-12-09T22:48:34.255Z,7.00
2018-12-09T22:53:38.233Z,7.00
2018-12-09T22:58:42.285Z,6.90
2018-12-09T23:03:46.370Z,7.00
2018-12-09T23:08:50.253Z,6.90
2018-12-09T23:13:54.573Z,6.90
2018-12-09T23:18:58.529Z,7.00
2018-12-09T23:24:02.408Z,6.80
2018-12-09T23:29:06.531Z,6.70
2018-12-09T23:34:10.470Z,6.70
2018-12-09T23:39:14.386Z,6.80
2018-12-09T23:44:18.364Z,6.70
2018-12-09T23:49:22.509Z,6.70
2018-12-09T23:54:27.540Z,6.70
2018-12-09T23:59:31.619Z,6.70
